Time;durP1;ratioP1;P1;durP2;ratioP2;P2;SDS_P1;SDS_P2;PMS_P1;PMS_P2;Temp;Humidity;BMP_temperature;BMP_pressure;BME280_temperature;BME280_humidity;BME280_pressure;Samples;Min_cycle;Max_cycle;Signal;HPM_P1;HPM_P2
2022/11/30 00:01:09;;;;;;;7.50;3.07;;;;;;;6.45;nan;-23997.06;5034098;28;20533;-75
2022/11/30 00:03:35;;;;;;;4.03;3.10;;;;;;;6.42;nan;-23996.06;5034658;28;20176;-74
2022/11/30 00:06:05;;;;;;;7.97;3.67;;;;;;;6.68;nan;-24003.44;5035213;28;20631;-75
2022/11/30 00:08:30;;;;;;;3.90;2.67;;;;;;;6.43;nan;-23996.34;5034725;28;20202;-74
2022/11/30 00:10:55;;;;;;;3.67;2.83;;;;;;;6.71;nan;-24004.16;5034529;28;20623;-75
2022/11/30 00:13:21;;;;;;;4.73;3.07;;;;;;;6.41;nan;-23995.91;5032726;28;20179;-75
2022/11/30 00:15:46;;;;;;;5.43;3.43;;;;;;;6.61;nan;-24001.47;5032857;28;20172;-74
2022/11/30 00:18:12;;;;;;;9.63;3.30;;;;;;;6.45;nan;-23997.06;5034212;28;20678;-75
2022/11/30 00:20:37;;;;;;;6.67;3.50;;;;;;;6.77;nan;-24005.84;5034742;28;20250;-74
2022/11/30 00:23:02;;;;;;;4.17;2.93;;;;;;;6.64;nan;-24002.31;5034347;28;20259;-74
2022/11/30 00:25:28;;;;;;;5.03;3.57;;;;;;;6.63;nan;-24002.03;5033941;28;20191;-74
2022/11/30 00:27:53;;;;;;;6.57;3.00;;;;;;;6.67;nan;-24003.16;5034227;28;20585;-74
2022/11/30 00:30:19;;;;;;;5.20;3.43;;;;;;;6.66;nan;-24003.00;5033970;28;20178;-74
2022/11/30 00:32:44;;;;;;;5.63;3.27;;;;;;;6.55;nan;-23999.91;5035450;28;20172;-74
2022/11/30 00:35:09;;;;;;;4.20;2.77;;;;;;;6.55;nan;-23999.75;5035631;28;20649;-75
2022/11/30 00:37:35;;;;;;;4.80;3.13;;;;;;;6.40;nan;-23995.50;5035473;28;20264;-74
2022/11/30 00:40:00;;;;;;;5.47;2.73;;;;;;;6.27;nan;-23991.81;5035047;28;20163;-73
2022/11/30 00:42:26;;;;;;;5.03;2.70;;;;;;;6.62;nan;-24001.88;5033080;28;20179;-74
2022/11/30 00:44:51;;;;;;;6.57;3.23;;;;;;;6.46;nan;-23997.34;5034050;28;20210;-75
2022/11/30 00:47:16;;;;;;;7.33;3.30;;;;;;;6.32;nan;-23993.22;5032270;28;20568;-75
2022/11/30 00:49:42;;;;;;;6.57;3.10;;;;;;;6.58;nan;-24000.59;5033625;28;20183;-74
2022/11/30 00:52:07;;;;;;;5.83;3.63;;;;;;;6.72;nan;-24004.44;5033946;28;20263;-75
2022/11/30 00:54:33;;;;;;;4.37;3.23;;;;;;;6.56;nan;-24000.03;5032379;28;20233;-73
2022/11/30 00:56:58;;;;;;;6.07;3.27;;;;;;;6.63;nan;-24002.16;5033695;28;20191;-74
2022/11/30 00:59:23;;;;;;;6.07;3.63;;;;;;;6.28;nan;-23992.09;5033388;28;20179;-75
2022/11/30 01:01:49;;;;;;;5.40;3.83;;;;;;;6.68;nan;-24003.31;5033410;28;20219;-74
2022/11/30 01:04:14;;;;;;;6.47;4.07;;;;;;;6.80;nan;-24006.84;5033803;28;20171;-74
2022/11/30 01:06:40;;;;;;;4.43;2.90;;;;;;;6.63;nan;-24002.16;5033127;28;20712;-73
2022/11/30 01:09:05;;;;;;;6.40;3.20;;;;;;;6.33;nan;-23993.50;5033726;28;20638;-75
2022/11/30 01:11:31;;;;;;;5.10;2.83;;;;;;;6.49;nan;-23998.06;5033643;28;20171;-75
2022/11/30 01:13:58;;;;;;;6.57;3.63;;;;;;;6.32;nan;-23993.22;5033100;28;20510;-75
2022/11/30 01:16:26;;;;;;;5.63;2.70;;;;;;;6.68;nan;-24003.31;5032275;28;20651;-75
2022/11/30 01:18:52;;;;;;;6.83;3.70;;;;;;;6.50;nan;-23998.34;5033876;28;20658;-75
2022/11/30 01:21:20;;;;;;;5.13;3.17;;;;;;;6.62;nan;-24001.88;5033303;28;20164;-75
2022/11/30 01:23:47;;;;;;;6.50;3.87;;;;;;;6.05;nan;-23985.84;5033286;28;20636;-75
2022/11/30 01:26:13;;;;;;;6.97;3.13;;;;;;;6.55;nan;-23999.75;5032787;28;20257;-74
2022/11/30 01:28:39;;;;;;;6.27;3.50;;;;;;;6.66;nan;-24002.88;5032800;28;20663;-75
2022/11/30 01:31:08;;;;;;;8.33;3.60;;;;;;;6.60;nan;-24001.19;5033165;28;20160;-74
2022/11/30 01:33:34;;;;;;;5.80;3.33;;;;;;;6.37;nan;-23994.66;5032833;28;20203;-75
2022/11/30 01:36:03;;;;;;;4.67;3.47;;;;;;;6.72;nan;-24004.56;5032859;28;20175;-75
2022/11/30 01:38:34;;;;;;;6.77;4.07;;;;;;;6.35;nan;-23994.06;5033020;28;20175;-74
2022/11/30 01:41:00;;;;;;;4.90;3.43;;;;;;;6.69;nan;-24003.72;5032173;28;20665;-75
2022/11/30 01:43:42;;;;;;;5.80;2.67;;;;;;;6.41;nan;-23995.91;5033085;28;20199;-75
2022/11/30 01:46:52;;;;;;;8.40;4.13;;;;;;;6.88;nan;-24008.97;5032999;28;20211;-75
2022/11/30 01:49:35;;;;;;;6.90;3.10;;;;;;;6.28;nan;-23992.22;5032225;28;20174;-75
2022/11/30 01:52:09;;;;;;;12.23;3.63;;;;;;;6.73;nan;-24004.72;5032516;28;20203;-74
2022/11/30 01:55:05;;;;;;;4.87;2.93;;;;;;;6.41;nan;-23995.78;5032737;28;20165;-75
2022/11/30 01:57:39;;;;;;;7.07;3.43;;;;;;;6.42;nan;-23996.22;5032253;28;20198;-75
2022/11/30 02:00:11;;;;;;;6.33;3.33;;;;;;;6.35;nan;-23994.06;5032626;28;20634;-75
2022/11/30 02:02:43;;;;;;;7.50;3.93;;;;;;;6.81;nan;-24007.13;5032524;28;20226;-75
2022/11/30 02:05:09;;;;;;;6.40;4.17;;;;;;;6.81;nan;-24007.00;5032505;28;20179;-75
2022/11/30 02:07:34;;;;;;;7.40;4.73;;;;;;;6.79;nan;-24006.56;5032128;28;20179;-75
2022/11/30 02:10:00;;;;;;;6.40;3.73;;;;;;;6.48;nan;-23997.75;5030822;28;20245;-74
2022/11/30 02:12:44;;;;;;;5.87;3.70;;;;;;;6.75;nan;-24005.44;5030013;28;20183;-74
2022/11/30 02:15:20;;;;;;;4.73;3.43;;;;;;;6.44;nan;-23996.63;5031814;28;20258;-75
2022/11/30 02:18:21;;;;;;;8.00;4.93;;;;;;;6.66;nan;-24002.88;5031413;28;20221;-75
2022/11/30 02:20:55;;;;;;;5.80;3.80;;;;;;;6.68;nan;-24003.44;4998682;28;20266;-74
2022/11/30 02:23:23;;;;;;;5.97;3.10;;;;;;;6.68;nan;-24003.31;5031347;28;20679;-75
2022/11/30 02:25:51;;;;;;;5.23;3.63;;;;;;;6.69;nan;-24003.59;5031208;28;20179;-75
2022/11/30 02:28:38;;;;;;;8.27;4.27;;;;;;;6.73;nan;-24004.72;5031730;28;20186;-75
2022/11/30 02:31:07;;;;;;;7.60;4.03;;;;;;;6.45;nan;-23997.06;5031478;28;20309;-75
2022/11/30 02:33:34;;;;;;;6.70;3.97;;;;;;;6.70;nan;-24003.88;5031595;28;20183;-74
2022/11/30 02:36:02;;;;;;;6.93;4.57;;;;;;;6.80;nan;-24006.84;5031421;28;20230;-74
2022/11/30 02:38:28;;;;;;;8.60;3.30;;;;;;;6.71;nan;-24004.28;5031059;28;20187;-75
2022/11/30 02:40:54;;;;;;;8.30;3.50;;;;;;;6.60;nan;-24001.31;5030994;28;20179;-74
2022/11/30 02:43:22;;;;;;;9.73;4.70;;;;;;;6.68;nan;-24003.44;5030695;28;20182;-75
2022/11/30 02:46:18;;;;;;;6.57;4.33;;;;;;;6.83;nan;-24007.69;5031005;28;20638;-74
2022/11/30 02:49:00;;;;;;;6.70;3.77;;;;;;;6.83;nan;-24007.69;5004895;28;20249;-75
2022/11/30 02:51:28;;;;;;;8.43;5.27;;;;;;;6.82;nan;-24007.41;5031604;28;20180;-75
2022/11/30 02:53:54;;;;;;;12.50;4.20;;;;;;;6.39;nan;-23995.22;5031668;28;20182;-74
2022/11/30 02:56:21;;;;;;;6.43;3.77;;;;;;;6.73;nan;-24004.72;5031124;28;20203;-75
2022/11/30 02:58:46;;;;;;;10.07;4.63;;;;;;;6.76;nan;-24005.56;5031581;28;20182;-75
2022/11/30 03:01:12;;;;;;;6.67;3.60;;;;;;;6.63;nan;-24002.03;5031794;28;20630;-75
2022/11/30 03:03:37;;;;;;;5.90;4.07;;;;;;;6.53;nan;-23999.19;5031566;28;20167;-74
2022/11/30 03:06:03;;;;;;;6.60;3.73;;;;;;;6.79;nan;-24006.56;5035766;28;20203;-75
2022/11/30 03:08:28;;;;;;;5.70;4.13;;;;;;;6.43;nan;-23996.50;5033888;28;20621;-74
2022/11/30 03:10:53;;;;;;;8.80;4.50;;;;;;;6.74;nan;-24005.16;5035408;28;20174;-74
2022/11/30 03:13:19;;;;;;;7.60;4.00;;;;;;;6.46;nan;-23997.19;5034008;28;20235;-74
2022/11/30 03:15:44;;;;;;;5.33;3.80;;;;;;;6.39;nan;-23995.34;5034198;28;20210;-75
2022/11/30 03:18:09;;;;;;;5.53;3.63;;;;;;;6.71;nan;-24004.16;5035232;28;20214;-75
2022/11/30 03:20:40;;;;;;;8.00;4.10;;;;;;;6.58;nan;-24000.59;5035444;28;20175;-75
2022/11/30 03:23:06;;;;;;;9.73;4.20;;;;;;;6.65;nan;-24002.59;5035345;28;20174;-74
2022/11/30 03:25:31;;;;;;;12.40;5.67;;;;;;;6.66;nan;-24002.88;5033618;28;20172;-75
2022/11/30 03:27:59;;;;;;;5.73;3.90;;;;;;;6.57;nan;-24000.47;5035325;28;20182;-76
2022/11/30 03:30:24;;;;;;;8.27;3.67;;;;;;;6.42;nan;-23996.22;5034000;28;20556;-76
2022/11/30 03:32:51;;;;;;;6.73;4.10;;;;;;;6.64;nan;-24002.31;5035264;28;20179;-75
2022/11/30 03:35:16;;;;;;;7.97;3.87;;;;;;;6.56;nan;-24000.03;5035442;28;20262;-75
2022/11/30 03:37:42;;;;;;;7.27;3.80;;;;;;;5.87;nan;-23980.72;5034891;28;20326;-74
2022/11/30 03:40:07;;;;;;;7.17;4.10;;;;;;;6.40;nan;-23995.50;5033265;28;20263;-75
2022/11/30 03:42:33;;;;;;;6.03;4.37;;;;;;;6.27;nan;-23991.81;5033899;28;20259;-75
2022/11/30 03:44:58;;;;;;;6.10;3.33;;;;;;;6.28;nan;-23992.22;5035080;28;20171;-75
2022/11/30 03:47:24;;;;;;;6.30;4.07;;;;;;;6.30;nan;-23992.66;5035037;28;20317;-75
2022/11/30 03:49:49;;;;;;;5.50;3.67;;;;;;;6.18;nan;-23989.53;5034915;28;20183;-75
2022/11/30 03:52:14;;;;;;;5.13;3.27;;;;;;;6.19;nan;-23989.69;5035000;28;20184;-75
2022/11/30 03:54:40;;;;;;;6.77;3.83;;;;;;;6.49;nan;-23998.19;5033474;28;20183;-75
2022/11/30 03:57:05;;;;;;;7.90;4.23;;;;;;;6.55;nan;-23999.91;5034671;28;20218;-75
2022/11/30 03:59:31;;;;;;;7.83;4.00;;;;;;;6.38;nan;-23994.94;5034670;28;20260;-76
2022/11/30 04:01:56;;;;;;;7.97;4.23;;;;;;;6.48;nan;-23997.75;5033401;28;20219;-76
2022/11/30 04:04:21;;;;;;;6.33;4.07;;;;;;;6.17;nan;-23989.09;5034453;28;20567;-76
2022/11/30 04:06:52;;;;;;;9.30;4.37;;;;;;;6.66;nan;-24003.00;5034164;28;20281;-77
2022/11/30 04:09:33;;;;;;;5.87;3.53;;;;;;;6.50;nan;-23998.47;5033425;28;20187;-75
2022/11/30 04:11:58;;;;;;;7.10;4.20;;;;;;;6.70;nan;-24004.00;5033599;28;20183;-75
2022/11/30 04:14:23;;;;;;;6.80;3.77;;;;;;;6.41;nan;-23995.78;5033271;28;20582;-76
2022/11/30 04:16:49;;;;;;;4.83;3.73;;;;;;;6.11;nan;-23987.41;5040647;28;20202;-75
2022/11/30 04:19:14;;;;;;;10.70;5.57;;;;;;;6.17;nan;-23989.25;5017582;28;20191;-75
2022/11/30 04:21:39;;;;;;;11.30;5.40;;;;;;;5.89;nan;-23981.28;5034203;28;20222;-75
2022/11/30 04:24:05;;;;;;;9.97;4.53;;;;;;;6.06;nan;-23986.13;5037003;28;20556;-77
2022/11/30 04:26:31;;;;;;;9.37;5.00;;;;;;;6.12;nan;-23987.81;5036594;28;20249;-76
2022/11/30 04:28:56;;;;;;;4.60;3.97;;;;;;;5.97;nan;-23983.56;5035725;28;20240;-74
2022/11/30 04:31:22;;;;;;;7.30;3.70;;;;;;;6.02;nan;-23984.97;5037530;28;20193;-75
2022/11/30 04:33:51;;;;;;;7.47;4.60;;;;;;;6.00;nan;-23984.28;5038898;28;20192;-76
2022/11/30 04:36:18;;;;;;;5.83;4.33;;;;;;;5.98;nan;-23983.84;5037299;28;20272;-77
2022/11/30 04:38:44;;;;;;;12.60;3.57;;;;;;;5.85;nan;-23980.00;5037426;28;20175;-76
2022/11/30 04:41:09;;;;;;;7.20;3.90;;;;;;;5.97;nan;-23983.56;5038049;28;21118;-77
2022/11/30 04:43:36;;;;;;;8.50;4.33;;;;;;;5.86;nan;-23980.44;5036411;28;20190;-76
2022/11/30 04:46:01;;;;;;;8.57;4.07;;;;;;;5.79;nan;-23978.59;5037696;28;20236;-75
2022/11/30 04:48:27;;;;;;;8.57;4.63;;;;;;;5.91;nan;-23981.88;5038217;28;20694;-77
2022/11/30 04:50:52;;;;;;;6.37;3.33;;;;;;;6.05;nan;-23985.69;5041926;28;20266;-76
2022/11/30 04:53:18;;;;;;;10.20;3.63;;;;;;;6.05;nan;-23985.84;5036406;28;20201;-76
2022/11/30 04:55:43;;;;;;;6.63;3.57;;;;;;;6.31;nan;-23993.09;5035681;28;20186;-76
2022/11/30 04:58:08;;;;;;;4.63;2.67;;;;;;;6.01;nan;-23984.69;5039886;28;20202;-76
2022/11/30 05:00:35;;;;;;;5.67;3.93;;;;;;;6.21;nan;-23990.38;5038640;28;20180;-76
2022/11/30 05:03:00;;;;;;;5.77;3.20;;;;;;;5.96;nan;-23983.28;5035196;28;20810;-76
2022/11/30 05:05:26;;;;;;;5.63;3.20;;;;;;;6.30;nan;-23992.66;5036219;28;20286;-76
2022/11/30 05:07:56;;;;;;;5.40;2.73;;;;;;;6.01;nan;-23984.56;5035532;28;20278;-75
2022/11/30 05:10:23;;;;;;;4.03;3.13;;;;;;;6.17;nan;-23989.25;5035958;28;20214;-76
2022/11/30 05:12:49;;;;;;;3.90;3.17;;;;;;;6.34;nan;-23993.78;5034447;28;20191;-76
2022/11/30 05:15:14;;;;;;;5.50;2.00;;;;;;;6.40;nan;-23995.50;5024955;28;20221;-77
2022/11/30 05:17:40;;;;;;;4.17;2.50;;;;;;;6.12;nan;-23987.69;5035050;28;20227;-77
2022/11/30 05:20:06;;;;;;;2.83;2.53;;;;;;;6.55;nan;-23999.91;5038163;28;20193;-75
2022/11/30 05:22:33;;;;;;;2.53;2.30;;;;;;;6.50;nan;-23998.47;5033097;28;20190;-76
2022/11/30 05:24:59;;;;;;;2.60;2.17;;;;;;;6.26;nan;-23991.66;5035137;28;20187;-76
2022/11/30 05:27:24;;;;;;;3.07;2.40;;;;;;;6.17;nan;-23989.09;5037359;28;20238;-76
2022/11/30 05:29:50;;;;;;;3.33;2.10;;;;;;;6.39;nan;-23995.34;5014986;28;20182;-75
2022/11/30 05:32:15;;;;;;;2.40;2.20;;;;;;;6.15;nan;-23988.69;5033040;28;20175;-76
2022/11/30 05:34:41;;;;;;;2.40;2.20;;;;;;;6.60;nan;-24001.19;5032478;28;20195;-77
2022/11/30 05:37:06;;;;;;;4.10;2.77;;;;;;;6.34;nan;-23993.78;5032889;28;20203;-75
2022/11/30 05:39:31;;;;;;;2.73;2.30;;;;;;;6.55;nan;-23999.75;5031859;28;20187;-76
2022/11/30 05:41:57;;;;;;;2.23;2.00;;;;;;;6.66;nan;-24003.00;5033725;28;20233;-76
2022/11/30 05:44:22;;;;;;;2.57;1.80;;;;;;;6.63;nan;-24002.03;5030947;28;20187;-77
2022/11/30 05:46:48;;;;;;;3.07;2.30;;;;;;;6.38;nan;-23994.94;5031873;28;20176;-76
2022/11/30 05:49:13;;;;;;;4.90;3.10;;;;;;;6.36;nan;-23994.50;5030652;28;20179;-77
2022/11/30 05:51:40;;;;;;;4.03;2.87;;;;;;;6.40;nan;-23995.63;5031201;28;20622;-76
2022/11/30 05:54:05;;;;;;;3.97;2.30;;;;;;;6.57;nan;-24000.31;5030551;28;20186;-77
2022/11/30 05:56:31;;;;;;;2.03;1.90;;;;;;;6.43;nan;-23996.34;5030128;28;20199;-76
2022/11/30 05:58:56;;;;;;;2.97;2.40;;;;;;;6.34;nan;-23993.94;5030471;28;20241;-80
2022/11/30 06:01:24;;;;;;;4.57;2.40;;;;;;;6.37;nan;-23994.78;5030343;28;20171;-78
2022/11/30 06:03:50;;;;;;;2.80;2.13;;;;;;;6.40;nan;-23995.63;5030448;28;20221;-80
2022/11/30 06:06:16;;;;;;;2.20;1.97;;;;;;;6.66;nan;-24002.88;5031961;28;20171;-80
2022/11/30 06:08:42;;;;;;;4.50;2.30;;;;;;;6.69;nan;-24003.59;5030803;28;20221;-78
2022/11/30 06:11:07;;;;;;;3.40;2.30;;;;;;;6.71;nan;-24004.16;5030607;28;20187;-79
2022/11/30 06:13:33;;;;;;;5.13;2.63;;;;;;;6.63;nan;-24002.16;5030429;28;20224;-78
2022/11/30 06:15:59;;;;;;;3.30;2.13;;;;;;;6.32;nan;-23993.22;5029386;28;20178;-76
2022/11/30 06:18:25;;;;;;;3.17;2.50;;;;;;;6.62;nan;-24001.88;5031809;28;20340;-77
2022/11/30 06:20:50;;;;;;;3.20;2.63;;;;;;;6.33;nan;-23993.50;5029143;28;20622;-76
2022/11/30 06:23:16;;;;;;;2.70;2.20;;;;;;;6.62;nan;-24001.75;5030219;28;20619;-77
2022/11/30 06:25:41;;;;;;;3.37;2.37;;;;;;;6.35;nan;-23994.06;5030084;28;20189;-77
2022/11/30 06:28:12;;;;;;;2.67;2.17;;;;;;;6.61;nan;-24001.47;5035100;28;20187;-77
2022/11/30 06:30:37;;;;;;;2.90;2.60;;;;;;;6.59;nan;-24000.88;5014459;28;20263;-76
2022/11/30 06:33:03;;;;;;;1.93;1.77;;;;;;;6.51;nan;-23998.63;5031282;28;20275;-76
2022/11/30 06:35:29;;;;;;;2.93;2.27;;;;;;;6.51;nan;-23998.75;5030107;28;20570;-77
2022/11/30 06:37:56;;;;;;;2.47;2.13;;;;;;;6.27;nan;-23991.81;5031530;28;20207;-77
2022/11/30 06:40:21;;;;;;;3.00;2.70;;;;;;;6.54;nan;-23999.63;5031531;28;20171;-76
2022/11/30 06:42:47;;;;;;;2.80;2.33;;;;;;;6.70;nan;-24003.88;5031492;28;20167;-76
2022/11/30 06:45:12;;;;;;;2.13;1.93;;;;;;;6.59;nan;-24001.03;5031344;28;20174;-76
2022/11/30 06:47:38;;;;;;;3.97;2.57;;;;;;;6.56;nan;-24000.19;5031231;28;20171;-77
2022/11/30 06:50:04;;;;;;;3.50;2.17;;;;;;;6.68;nan;-24003.44;5031013;28;20252;-76
2022/11/30 06:52:30;;;;;;;2.40;2.07;;;;;;;6.51;nan;-23998.75;5031445;28;20174;-76
2022/11/30 06:54:56;;;;;;;3.80;2.63;;;;;;;6.58;nan;-24000.75;5030076;28;20705;-76
2022/11/30 06:57:26;;;;;;;2.77;2.30;;;;;;;6.45;nan;-23996.91;5030975;28;20195;-76
2022/11/30 06:59:52;;;;;;;4.13;2.90;;;;;;;6.68;nan;-24003.44;5031472;28;20510;-76
2022/11/30 07:02:17;;;;;;;3.23;2.40;;;;;;;6.67;nan;-24003.16;5029429;28;20313;-75
2022/11/30 07:04:43;;;;;;;3.10;2.57;;;;;;;6.41;nan;-23995.78;5029833;28;20270;-77
2022/11/30 07:07:08;;;;;;;3.17;2.30;;;;;;;6.66;nan;-24002.88;5029822;28;20187;-79
2022/11/30 07:09:34;;;;;;;2.50;2.00;;;;;;;6.39;nan;-23995.22;5031057;28;20171;-75
2022/11/30 07:12:00;;;;;;;2.60;2.40;;;;;;;6.43;nan;-23996.34;5029929;28;20543;-77
2022/11/30 07:14:26;;;;;;;3.50;2.57;;;;;;;6.85;nan;-24008.25;5029812;28;20172;-77
2022/11/30 07:16:51;;;;;;;3.00;2.30;;;;;;;6.52;nan;-23999.03;5029831;28;20207;-77
2022/11/30 07:19:17;;;;;;;3.07;2.47;;;;;;;6.82;nan;-24007.41;5031340;28;20557;-78
2022/11/30 07:21:42;;;;;;;2.57;2.00;;;;;;;7.03;nan;-24013.38;5029768;28;20229;-77
2022/11/30 07:26:54;;;;;;;3.80;2.47;;;;;;;6.99;nan;-24012.25;5030936;28;20558;-77
2022/11/30 07:29:20;;;;;;;2.50;2.13;;;;;;;6.62;nan;-24001.88;5029656;28;20175;-77
2022/11/30 07:31:50;;;;;;;2.20;2.00;;;;;;;6.87;nan;-24008.69;5031429;28;20562;-76
2022/11/30 07:34:16;;;;;;;4.23;2.40;;;;;;;7.04;nan;-24013.50;5029675;28;20190;-77
2022/11/30 07:36:42;;;;;;;3.20;2.43;;;;;;;7.03;nan;-24013.22;5029602;28;20191;-76
2022/11/30 07:39:07;;;;;;;2.10;1.90;;;;;;;6.93;nan;-24010.41;5030671;28;20246;-76
2022/11/30 07:41:32;;;;;;;3.40;2.47;;;;;;;6.87;nan;-24008.84;5029278;28;20232;-77
2022/11/30 07:43:58;;;;;;;3.07;2.60;;;;;;;6.90;nan;-24009.69;5029321;28;20263;-77
2022/11/30 07:46:24;;;;;;;3.73;2.53;;;;;;;6.81;nan;-24007.13;5029665;28;20171;-77
2022/11/30 07:48:49;;;;;;;2.03;1.87;;;;;;;6.89;nan;-24009.41;5029380;28;20572;-77
2022/11/30 07:51:18;;;;;;;3.40;2.63;;;;;;;6.84;nan;-24007.84;5032216;28;20167;-76
2022/11/30 07:53:44;;;;;;;1.93;1.80;;;;;;;6.56;nan;-24000.03;5032778;28;20183;-77
2022/11/30 07:56:13;;;;;;;2.30;2.10;;;;;;;6.87;nan;-24008.84;5033513;28;20251;-78
2022/11/30 07:58:39;;;;;;;4.83;2.20;;;;;;;6.90;nan;-24009.69;5034600;28;20649;-77
2022/11/30 08:01:10;;;;;;;2.70;2.20;;;;;;;6.56;nan;-24000.19;5033577;28;20323;-76
2022/11/30 08:03:36;;;;;;;2.33;1.97;;;;;;;6.64;nan;-24002.31;5032868;28;20564;-77
2022/11/30 08:06:07;;;;;;;2.43;2.07;;;;;;;6.57;nan;-24000.47;5034042;28;20168;-77
2022/11/30 08:08:35;;;;;;;2.50;2.30;;;;;;;6.82;nan;-24007.28;5034017;28;20171;-77
2022/11/30 08:11:01;;;;;;;2.10;1.93;;;;;;;6.67;nan;-24003.16;5034039;28;20182;-77
2022/11/30 08:13:28;;;;;;;3.43;2.10;;;;;;;6.83;nan;-24007.69;5032521;28;20210;-79
2022/11/30 08:15:53;;;;;;;1.60;1.50;;;;;;;6.89;nan;-24009.25;5032831;28;20195;-77
2022/11/30 08:18:19;;;;;;;2.10;1.90;;;;;;;6.95;nan;-24011.09;5033817;28;20573;-77
2022/11/30 08:20:44;;;;;;;2.60;1.97;;;;;;;6.87;nan;-24008.84;5033658;28;20187;-77
2022/11/30 08:23:10;;;;;;;1.83;1.70;;;;;;;6.93;nan;-24010.41;5034282;28;20203;-77
2022/11/30 08:25:36;;;;;;;2.50;2.07;;;;;;;6.94;nan;-24010.69;5033584;28;20195;-76
2022/11/30 08:28:01;;;;;;;2.47;2.27;;;;;;;3.18;nan;-23904.84;5032241;28;20270;-77
2022/11/30 08:30:27;;;;;;;2.03;1.87;;;;;;;7.18;nan;-24017.47;5032117;28;20179;-76
2022/11/30 08:32:52;;;;;;;1.67;1.57;;;;;;;7.13;nan;-24016.06;5032368;28;20704;-77
2022/11/30 08:35:18;;;;;;;2.50;2.17;;;;;;;7.13;nan;-24015.94;5033637;28;20584;-77
2022/11/30 08:37:43;;;;;;;1.70;1.60;;;;;;;7.04;nan;-24013.66;5032833;28;20188;-76
2022/11/30 08:40:09;;;;;;;2.03;1.73;;;;;;;6.91;nan;-24009.97;5033214;28;20627;-76
2022/11/30 08:42:35;;;;;;;2.03;1.70;;;;;;;7.14;nan;-24016.34;5033512;28;20251;-77
2022/11/30 08:45:00;;;;;;;2.67;2.10;;;;;;;7.25;nan;-24019.34;5033638;28;20175;-76
2022/11/30 08:47:27;;;;;;;1.90;1.80;;;;;;;6.98;nan;-24011.81;5033663;28;20266;-77
2022/11/30 08:49:53;;;;;;;2.27;2.07;;;;;;;6.82;nan;-24007.28;5033234;28;20638;-77
2022/11/30 08:52:18;;;;;;;2.33;1.73;;;;;;;7.05;nan;-24013.81;5031257;28;20229;-76
2022/11/30 08:54:45;;;;;;;2.97;2.07;;;;;;;7.11;nan;-24015.50;5031491;28;20167;-77
2022/11/30 08:57:11;;;;;;;2.00;1.80;;;;;;;7.38;nan;-24023.00;5031145;28;20199;-77
2022/11/30 08:59:37;;;;;;;2.40;2.20;;;;;;;7.42;nan;-24024.16;5032712;28;20229;-76
2022/11/30 09:02:03;;;;;;;3.53;2.60;;;;;;;7.26;nan;-24019.63;5032652;28;20674;-77
2022/11/30 09:04:28;;;;;;;1.77;1.67;;;;;;;7.43;nan;-24024.44;5031821;28;20179;-77
2022/11/30 09:06:57;;;;;;;2.77;1.93;;;;;;;7.41;nan;-24023.88;5032894;28;20326;-77
2022/11/30 09:09:24;;;;;;;2.37;2.00;;;;;;;7.45;nan;-24025.00;5031799;28;20203;-76
2022/11/30 09:11:49;;;;;;;2.33;2.00;;;;;;;7.27;nan;-24019.91;5032836;28;20258;-77
2022/11/30 09:14:15;;;;;;;2.47;1.77;;;;;;;7.23;nan;-24018.91;5033435;28;20299;-77
2022/11/30 09:16:40;;;;;;;3.87;1.93;;;;;;;7.39;nan;-24023.31;5032756;28;20584;-76
2022/11/30 09:19:06;;;;;;;1.70;1.60;;;;;;;7.40;nan;-24023.72;5031561;28;20284;-76
2022/11/30 09:21:31;;;;;;;2.13;1.93;;;;;;;7.23;nan;-24018.91;5031147;28;20714;-78
2022/11/30 09:23:57;;;;;;;2.70;2.10;;;;;;;7.25;nan;-24019.34;5030585;28;20199;-79
2022/11/30 09:26:24;;;;;;;2.53;1.93;;;;;;;7.51;nan;-24026.84;5028479;28;20269;-79
2022/11/30 09:28:51;;;;;;;1.97;1.77;;;;;;;7.60;nan;-24029.09;5030804;28;20271;-78
2022/11/30 09:31:19;;;;;;;2.33;1.80;;;;;;;7.63;nan;-24029.97;5031235;28;20183;-78
2022/11/30 09:33:45;;;;;;;2.63;2.00;;;;;;;7.42;nan;-24024.16;5030878;28;20186;-78
2022/11/30 09:36:13;;;;;;;1.97;1.80;;;;;;;7.59;nan;-24028.97;5030156;28;20179;-78
2022/11/30 09:38:43;;;;;;;2.53;2.07;;;;;;;7.75;nan;-24033.50;5030661;28;20694;-78
2022/11/30 09:41:23;;;;;;;2.27;1.87;;;;;;;7.77;nan;-24033.94;5030792;28;20183;-78
2022/11/30 09:44:23;;;;;;;2.73;2.20;;;;;;;7.82;nan;-24035.34;5030651;28;20274;-78
2022/11/30 09:47:01;;;;;;;1.83;1.73;;;;;;;7.51;nan;-24026.84;5031050;28;20182;-77
2022/11/30 09:49:33;;;;;;;3.33;2.47;;;;;;;7.71;nan;-24032.38;5030557;28;20309;-78
2022/11/30 09:52:03;;;;;;;2.23;1.90;;;;;;;7.41;nan;-24023.88;5029806;28;20269;-77
2022/11/30 09:54:43;;;;;;;3.07;2.57;;;;;;;7.39;nan;-24023.31;5031435;28;20634;-77
2022/11/30 09:57:24;;;;;;;2.63;2.27;;;;;;;7.69;nan;-24031.66;5029793;28;20206;-78
2022/11/30 10:00:03;;;;;;;2.57;2.20;;;;;;;7.41;nan;-24023.88;5031856;28;20155;-78
2022/11/30 10:02:32;;;;;;;2.23;1.90;;;;;;;7.78;nan;-24034.22;5030023;28;20318;-79
2022/11/30 10:04:59;;;;;;;2.77;2.00;;;;;;;7.49;nan;-24026.13;5031614;28;20217;-77
2022/11/30 10:07:24;;;;;;;3.03;2.57;;;;;;;7.59;nan;-24028.97;5030336;28;20179;-78
2022/11/30 10:10:27;;;;;;;2.57;2.37;;;;;;;7.58;nan;-24028.53;5031131;28;20171;-78
2022/11/30 10:13:12;;;;;;;3.07;2.57;;;;;;;7.51;nan;-24026.84;5029393;28;20227;-77
2022/11/30 10:16:15;;;;;;;3.60;2.47;;;;;;;7.62;nan;-24029.69;5032379;28;20206;-78
2022/11/30 10:19:05;;;;;;;4.60;2.57;;;;;;;7.27;nan;-24020.03;5032180;28;20195;-77
2022/11/30 10:21:46;;;;;;;3.37;2.60;;;;;;;7.70;nan;-24032.09;5031250;28;20539;-78
2022/11/30 10:24:34;;;;;;;2.60;2.00;;;;;;;7.25;nan;-24019.34;5030097;28;20258;-78
2022/11/30 10:27:11;;;;;;;3.00;2.33;;;;;;;7.59;nan;-24028.81;5031425;28;20198;-77
2022/11/30 10:29:40;;;;;;;3.20;2.47;;;;;;;7.41;nan;-24023.88;5029897;28;20171;-77
2022/11/30 10:32:18;;;;;;;3.47;2.67;;;;;;;7.42;nan;-24024.16;5029618;28;20597;-76
2022/11/30 10:35:00;;;;;;;3.30;2.37;;;;;;;7.49;nan;-24026.28;5031140;28;20175;-78
2022/11/30 10:37:38;;;;;;;3.37;2.20;;;;;;;7.80;nan;-24034.78;5029618;28;20238;-77
2022/11/30 10:40:19;;;;;;;4.23;2.67;;;;;;;7.50;nan;-24026.56;5031966;28;20232;-77
2022/11/30 10:42:49;;;;;;;2.90;2.33;;;;;;;7.46;nan;-24025.44;5030721;28;20270;-77
2022/11/30 10:45:21;;;;;;;2.33;2.03;;;;;;;7.54;nan;-24027.56;5030260;28;20559;-76
2022/11/30 10:47:58;;;;;;;4.50;3.17;;;;;;;7.87;nan;-24036.91;5030248;28;20266;-76
2022/11/30 10:50:28;;;;;;;3.20;2.43;;;;;;;8.04;nan;-24041.44;5031790;28;20168;-78
2022/11/30 10:52:59;;;;;;;2.57;2.37;;;;;;;7.97;nan;-24039.72;5031452;28;20179;-78
2022/11/30 10:55:28;;;;;;;3.70;2.37;;;;;;;8.09;nan;-24043.00;5031649;28;20259;-77
2022/11/30 10:57:59;;;;;;;3.13;2.53;;;;;;;7.93;nan;-24038.59;5030237;28;20686;-77
2022/11/30 11:00:24;;;;;;;2.97;2.00;;;;;;;7.99;nan;-24040.31;5030664;28;20596;-77
2022/11/30 11:02:51;;;;;;;2.50;2.07;;;;;;;7.98;nan;-24039.88;5031306;28;20305;-77
2022/11/30 11:05:25;;;;;;;3.43;2.17;;;;;;;7.82;nan;-24035.34;5030280;28;20248;-77
2022/11/30 11:08:00;;;;;;;2.50;2.30;;;;;;;7.81;nan;-24035.22;5030495;28;20175;-77
2022/11/30 11:10:48;;;;;;;2.87;2.43;;;;;;;6.77;nan;-24006.00;5031429;28;20185;-79
2022/11/30 11:13:38;;;;;;;4.93;3.10;;;;;;;7.87;nan;-24036.91;5032302;28;20654;-77
2022/11/30 11:16:10;;;;;;;3.23;2.63;;;;;;;7.61;nan;-24029.53;5031497;28;20261;-77
2022/11/30 11:18:50;;;;;;;4.17;2.60;;;;;;;7.77;nan;-24034.06;5029972;28;20225;-77
2022/11/30 11:21:18;;;;;;;5.50;3.03;;;;;;;7.53;nan;-24027.41;5031641;28;20182;-77
2022/11/30 11:23:45;;;;;;;2.83;2.40;;;;;;;7.51;nan;-24026.84;5029878;28;20181;-76
2022/11/30 11:26:16;;;;;;;4.43;2.93;;;;;;;7.78;nan;-24034.22;5033722;28;20171;-76
2022/11/30 11:28:48;;;;;;;2.70;2.30;;;;;;;7.55;nan;-24027.84;5034788;28;20210;-78
2022/11/30 11:31:42;;;;;;;3.63;2.60;;;;;;;7.69;nan;-24031.81;5035254;28;20202;-76
2022/11/30 11:34:30;;;;;;;3.53;2.90;;;;;;;7.61;nan;-24029.41;5035215;28;20170;-78
2022/11/30 11:37:11;;;;;;;2.97;2.50;;;;;;;7.72;nan;-24032.66;5033662;28;20278;-77
2022/11/30 11:39:36;;;;;;;4.43;2.97;;;;;;;7.59;nan;-24028.97;5035480;28;20266;-77
2022/11/30 11:42:03;;;;;;;4.53;2.63;;;;;;;7.71;nan;-24032.38;5035427;28;20391;-78
2022/11/30 11:44:30;;;;;;;2.57;2.13;;;;;;;7.58;nan;-24028.69;5033547;28;20675;-77
2022/11/30 11:47:06;;;;;;;4.30;2.97;;;;;;;7.60;nan;-24029.25;5033435;28;20192;-77
2022/11/30 11:49:34;;;;;;;5.13;2.70;;;;;;;7.57;nan;-24028.41;5033238;28;20174;-77
2022/11/30 11:52:04;;;;;;;2.60;2.20;;;;;;;7.13;nan;-24015.94;5034509;28;20179;-77
2022/11/30 11:54:35;;;;;;;3.40;2.60;;;;;;;7.51;nan;-24026.69;5034732;28;20183;-78
2022/11/30 11:57:01;;;;;;;4.53;2.90;;;;;;;7.38;nan;-24023.00;5035077;28;20203;-77
2022/11/30 11:59:59;;;;;;;4.33;3.00;;;;;;;7.64;nan;-24030.25;5034384;28;20179;-77
2022/11/30 12:02:52;;;;;;;3.10;2.10;;;;;;;7.18;nan;-24017.34;5034541;28;20245;-77